Meteorológiai információk azoknak akik tudják olvasni.

METAR = LHBP 091600Z 36006KT 340V040 CAVOK 29/14 Q1019 NOSIG

9 órás TAF = TAF TAF LHBP 242330Z 2423/2424 30008KT CAVOK BECMG 2506/2509 24010KT OVC030 TEMPO 2509/2515 24015G25KT 8000 -RA BKN013 OVC025 BECMG 2515/2518 30008KT CAVOK

24 órás TAF = TAF TAF LHBP 091115Z 0912/1012 02008KT CAVOK TEMPO 0912/0916 VRB03KT TEMPO 0912/0920 8000 SHRA SCT045TCU BKN080 TEMPO 0916/0924 08010KT BECMG 1006/1008 03012KT

ÁLLOMÁS.................... LHBP
ÉSZLELÉS................... Tue Aug 9, 18:00 CEST
MOST....................... Tue Aug 9, 18:28 CEST
IDŐ........................ 28 perccel ezelőtt
SZÉL....................... É irányból 6 csomó
LÁTÁSTÁVOLSÁG.............. 10 km vagy több
FELHŐZET................... jelentős felhőzet nincs
HŐMÉRSÉKLET................ 84°F (29°C)
HARMATPONT................. 57°F (14°C)
PÁRATARTALOM............... 40%
HEAT INDEX................. 83°F (28°C)
LÉGNYOMÁS.................. 1019 hPa (30.09 in Hg)

További információ LHBP állomásról

Meteor információ kérése:        állomásról.    

 

www.tothgeza.hu

 

English version
Copyright © 2003-2022 Tóth Géza Minden jog fenntartva.